createdAt,value
2023-03-02T00:04:02.620Z,-1.69
2023-03-02T00:09:02.657Z,-1.84
2023-03-02T00:13:59.369Z,-1.76
2023-03-02T00:18:55.769Z,-1.72
2023-03-02T00:23:53.030Z,-1.59
2023-03-02T00:28:49.579Z,-1.19
2023-03-02T00:33:45.943Z,-1.17
2023-03-02T00:38:42.501Z,-1.06
2023-03-02T00:43:39.154Z,-1.00
2023-03-02T00:48:35.516Z,-1.07
2023-03-02T00:53:33.202Z,-1.07
2023-03-02T00:58:30.764Z,-1.08
2023-03-02T01:03:27.165Z,-1.14
2023-03-02T01:08:25.095Z,-1.28
2023-03-02T01:13:21.595Z,-1.44
2023-03-02T01:18:18.016Z,-1.42
2023-03-02T01:23:14.413Z,-1.51
2023-03-02T01:28:10.738Z,-1.51
2023-03-02T01:33:07.099Z,-1.34
2023-03-02T01:38:03.469Z,-1.39
2023-03-02T01:43:05.069Z,-1.40
2023-03-02T01:48:01.613Z,-1.42
2023-03-02T01:52:58.125Z,-1.39
2023-03-02T01:57:56.472Z,-1.65
2023-03-02T02:03:08.589Z,-1.92
2023-03-02T02:08:05.907Z,-1.88
2023-03-02T02:13:02.924Z,-1.86
2023-03-02T02:17:59.307Z,-1.64
2023-03-02T02:23:27.949Z,-1.61
2023-03-02T02:28:57.653Z,-1.73
2023-03-02T02:34:01.055Z,-1.88
2023-03-02T02:38:57.636Z,-1.99
2023-03-02T02:43:54.963Z,-2.09
2023-03-02T02:48:52.394Z,-2.20
2023-03-02T02:53:59.815Z,-2.44
2023-03-02T02:59:04.175Z,-2.42
2023-03-02T03:04:05.882Z,-2.17
2023-03-02T03:09:02.585Z,-2.31
2023-03-02T03:14:11.140Z,-2.46
2023-03-02T03:19:29.959Z,-2.51
2023-03-02T03:24:27.065Z,-2.62
2023-03-02T03:29:25.944Z,-2.60
2023-03-02T03:34:23.447Z,-2.63
2023-03-02T03:39:20.690Z,-2.68
2023-03-02T03:44:17.070Z,-2.59
2023-03-02T03:49:13.644Z,-2.62
2023-03-02T03:54:10.720Z,-2.68
2023-03-02T03:59:14.176Z,-2.73
2023-03-02T04:04:14.159Z,-2.64
2023-03-02T04:09:12.174Z,-2.55
2023-03-02T04:14:09.641Z,-2.48
2023-03-02T04:19:09.662Z,-2.60
2023-03-02T04:24:07.355Z,-2.52
2023-03-02T04:29:04.539Z,-2.54
2023-03-02T04:34:04.020Z,-2.67
2023-03-02T04:39:00.553Z,-2.73
2023-03-02T04:43:57.089Z,-2.70
2023-03-02T04:48:53.856Z,-2.72
2023-03-02T04:53:57.906Z,-2.80
2023-03-02T04:58:55.297Z,-2.77
2023-03-02T05:03:51.693Z,-2.81
2023-03-02T05:08:48.267Z,-2.73
2023-03-02T05:13:44.675Z,-2.58
2023-03-02T05:18:41.037Z,-2.78
2023-03-02T05:23:37.430Z,-2.89
2023-03-02T05:28:34.390Z,-2.88
2023-03-02T05:33:30.948Z,-2.97
2023-03-02T05:38:27.618Z,-2.90
2023-03-02T05:43:24.202Z,-2.83
2023-03-02T05:48:20.563Z,-2.73
2023-03-02T05:53:17.119Z,-2.80
2023-03-02T05:58:16.394Z,-2.80
2023-03-02T06:03:12.792Z,-2.76
2023-03-02T06:08:09.299Z,-2.83
2023-03-02T06:13:05.630Z,-2.77
2023-03-02T06:18:02.063Z,-2.78
2023-03-02T06:22:58.545Z,-2.91
2023-03-02T06:27:54.925Z,-2.89
2023-03-02T06:32:51.851Z,-2.79
2023-03-02T06:37:48.409Z,-2.53
2023-03-02T06:42:44.777Z,-2.35
2023-03-02T06:47:41.589Z,-2.11
2023-03-02T06:52:37.941Z,-1.96
2023-03-02T06:57:34.396Z,-1.53
2023-03-02T07:02:30.902Z,-1.46
2023-03-02T07:07:27.558Z,-1.33
2023-03-02T07:12:23.894Z,-1.38
2023-03-02T07:17:20.257Z,-1.21
2023-03-02T07:22:17.007Z,-1.22
2023-03-02T07:27:13.367Z,-1.25
2023-03-02T07:32:12.389Z,-1.26
2023-03-02T07:37:09.124Z,-1.13
2023-03-02T07:42:08.814Z,-1.21
2023-03-02T07:47:05.386Z,-1.13
2023-03-02T07:52:02.911Z,-1.11
2023-03-02T07:56:59.400Z,-1.02
2023-03-02T08:01:56.651Z,-0.81
2023-03-02T08:06:53.048Z,-0.84
2023-03-02T08:11:49.435Z,-0.60
2023-03-02T08:16:45.824Z,-0.64
2023-03-02T08:21:42.219Z,-0.37
2023-03-02T08:26:39.031Z,-0.22
2023-03-02T08:31:35.809Z,0.14
2023-03-02T08:36:32.702Z,0.44
2023-03-02T08:41:29.474Z,0.71
2023-03-02T08:46:25.816Z,0.91
2023-03-02T08:51:24.910Z,1.16
2023-03-02T08:56:25.114Z,1.29
2023-03-02T09:01:25.191Z,1.55
2023-03-02T09:06:21.632Z,1.89
2023-03-02T09:11:18.464Z,2.13
2023-03-02T09:16:15.352Z,2.23
2023-03-02T09:21:11.871Z,2.37
2023-03-02T09:26:09.121Z,2.19
2023-03-02T09:31:07.496Z,2.67
2023-03-02T09:36:20.503Z,3.05
2023-03-02T09:41:19.911Z,3.35
2023-03-02T09:46:44.372Z,3.66
2023-03-02T09:51:56.771Z,3.66
2023-03-02T09:56:55.557Z,3.74
2023-03-02T10:02:03.747Z,3.73
2023-03-02T10:07:13.699Z,3.43
2023-03-02T10:12:31.609Z,3.93
2023-03-02T10:17:45.808Z,4.10
2023-03-02T10:22:48.341Z,4.06
2023-03-02T10:27:51.489Z,4.42
2023-03-02T10:32:50.239Z,4.54
2023-03-02T10:37:47.906Z,4.14
2023-03-02T10:42:44.567Z,4.06
2023-03-02T10:47:40.894Z,4.17
2023-03-02T10:52:37.235Z,4.29
2023-03-02T10:57:39.174Z,3.92
2023-03-02T11:02:37.379Z,3.97
2023-03-02T11:07:33.745Z,4.04
2023-03-02T11:12:31.633Z,4.39
2023-03-02T11:17:34.654Z,4.75
2023-03-02T11:22:52.351Z,4.20
2023-03-02T11:27:57.040Z,4.43
2023-03-02T11:33:17.252Z,4.54
2023-03-02T11:38:21.360Z,4.76
2023-03-02T11:43:17.749Z,5.04
2023-03-02T11:48:34.931Z,5.24
2023-03-02T11:53:41.410Z,5.62
2023-03-02T11:58:39.196Z,5.17
2023-03-02T12:03:38.785Z,5.38
2023-03-02T12:08:39.917Z,5.20
2023-03-02T12:13:39.110Z,5.53
2023-03-02T12:18:44.674Z,5.59
2023-03-02T12:23:55.201Z,5.79
2023-03-02T12:29:23.261Z,5.98
2023-03-02T12:34:38.976Z,6.24
2023-03-02T12:39:48.173Z,6.34
2023-03-02T12:45:01.106Z,6.62
2023-03-02T12:50:04.325Z,6.41
2023-03-02T12:55:09.398Z,6.30
2023-03-02T13:00:14.952Z,6.24
2023-03-02T13:05:20.042Z,6.33
2023-03-02T13:10:22.509Z,6.50
2023-03-02T13:15:19.663Z,6.47
2023-03-02T13:20:16.514Z,6.77
2023-03-02T13:25:23.348Z,6.83
2023-03-02T13:30:28.598Z,6.63
2023-03-02T13:35:26.986Z,6.76
2023-03-02T13:40:23.269Z,6.71
2023-03-02T13:45:24.409Z,6.52
2023-03-02T13:50:29.561Z,6.83
2023-03-02T13:55:26.357Z,7.08
2023-03-02T14:00:29.709Z,7.23
2023-03-02T14:05:32.932Z,7.24
2023-03-02T14:10:29.659Z,7.35
2023-03-02T14:15:26.142Z,7.49
2023-03-02T14:20:22.478Z,7.04
2023-03-02T14:25:19.467Z,6.92
2023-03-02T14:30:20.622Z,6.73
2023-03-02T14:35:17.086Z,6.35
2023-03-02T14:40:28.110Z,6.09
2023-03-02T14:45:24.572Z,5.79
2023-03-02T14:50:20.841Z,5.86
2023-03-02T14:55:25.800Z,5.38
2023-03-02T15:00:22.614Z,5.48
2023-03-02T15:05:19.401Z,5.38
2023-03-02T15:10:19.596Z,5.21
2023-03-02T15:15:16.162Z,5.23
2023-03-02T15:20:15.238Z,5.07
2023-03-02T15:25:11.573Z,4.99
2023-03-02T15:30:08.553Z,4.86
2023-03-02T15:35:05.361Z,4.51
2023-03-02T15:40:01.689Z,4.48
2023-03-02T15:44:57.986Z,4.34
2023-03-02T15:49:54.286Z,4.15
2023-03-02T15:54:50.669Z,4.03
2023-03-02T15:59:47.315Z,4.00
2023-03-02T16:04:43.824Z,3.98
2023-03-02T16:09:40.236Z,3.79
2023-03-02T16:14:36.554Z,3.74
2023-03-02T16:19:33.420Z,3.13
2023-03-02T16:24:29.809Z,3.04
2023-03-02T16:29:26.259Z,2.56
2023-03-02T16:34:22.794Z,2.21
2023-03-02T16:39:19.146Z,2.27
2023-03-02T16:44:16.005Z,1.70
2023-03-02T16:49:13.794Z,1.61
2023-03-02T16:54:11.692Z,1.53
2023-03-02T16:59:08.101Z,1.37
2023-03-02T17:04:06.032Z,1.20
2023-03-02T17:09:03.125Z,1.05
2023-03-02T17:13:59.465Z,1.03
2023-03-02T17:18:55.750Z,0.88
2023-03-02T17:23:52.094Z,0.79
2023-03-02T17:28:48.463Z,0.71
2023-03-02T17:33:45.027Z,0.72
2023-03-02T17:38:41.402Z,0.77
2023-03-02T17:43:42.698Z,0.74
2023-03-02T17:48:39.039Z,0.77
2023-03-02T17:53:35.356Z,0.82
2023-03-02T17:58:44.242Z,0.68
2023-03-02T18:03:41.275Z,0.65
2023-03-02T18:08:37.767Z,0.68
2023-03-02T18:13:34.140Z,0.53
2023-03-02T18:18:30.970Z,0.55
2023-03-02T18:23:27.397Z,0.55
2023-03-02T18:28:23.884Z,0.56
2023-03-02T18:33:20.269Z,0.60
2023-03-02T18:38:16.619Z,0.45
2023-03-02T18:43:12.999Z,0.42
2023-03-02T18:48:09.305Z,0.43
2023-03-02T18:53:05.611Z,0.30
2023-03-02T18:58:01.919Z,0.26
2023-03-02T19:02:58.293Z,0.27
2023-03-02T19:07:54.832Z,0.17
2023-03-02T19:12:51.202Z,0.17
2023-03-02T19:17:48.992Z,0.19
2023-03-02T19:22:45.329Z,0.12
2023-03-02T19:27:41.663Z,0.06
2023-03-02T19:32:38.008Z,0.15
2023-03-02T19:37:34.365Z,0.12
2023-03-02T19:42:34.591Z,0.09
2023-03-02T19:47:32.011Z,0.14
2023-03-02T19:52:28.376Z,0.08
2023-03-02T19:57:27.444Z,0.08
2023-03-02T20:02:24.587Z,0.02
2023-03-02T20:07:20.914Z,-0.01
2023-03-02T20:12:17.213Z,0.07
2023-03-02T20:17:14.425Z,0.01
2023-03-02T20:22:11.107Z,-0.02
2023-03-02T20:27:07.730Z,0.01
2023-03-02T20:32:06.058Z,-0.03
2023-03-02T20:37:03.743Z,0.03
2023-03-02T20:42:00.392Z,0.06
2023-03-02T20:47:01.096Z,0.05
2023-03-02T20:51:59.486Z,0.06
2023-03-02T20:56:56.484Z,0.02
2023-03-02T21:01:53.100Z,0.02
2023-03-02T21:06:49.953Z,0.06
2023-03-02T21:11:46.916Z,0.11
2023-03-02T21:16:44.408Z,0.18
2023-03-02T21:21:42.386Z,0.09
2023-03-02T21:26:39.358Z,0.07
2023-03-02T21:31:35.752Z,0.03
2023-03-02T21:36:32.452Z,0.00
2023-03-02T21:41:28.855Z,-0.01
2023-03-02T21:46:25.393Z,-0.05
2023-03-02T21:51:22.154Z,0.02
2023-03-02T21:56:24.381Z,-0.04
2023-03-02T22:01:22.152Z,0.02
2023-03-02T22:06:22.222Z,0.11
2023-03-02T22:11:22.728Z,0.05
2023-03-02T22:16:27.160Z,-0.01
2023-03-02T22:21:26.454Z,0.01
2023-03-02T22:26:22.811Z,0.05
2023-03-02T22:31:21.995Z,0.02
2023-03-02T22:36:22.070Z,-0.15
2023-03-02T22:41:19.692Z,-0.16
2023-03-02T22:46:19.933Z,-0.08
2023-03-02T22:51:22.370Z,-0.06
2023-03-02T22:56:33.872Z,-0.06
2023-03-02T23:01:39.690Z,-0.02
2023-03-02T23:06:45.172Z,-0.12
2023-03-02T23:11:41.994Z,-0.08
2023-03-02T23:16:38.578Z,-0.01
2023-03-02T23:21:39.974Z,0.07
2023-03-02T23:26:36.881Z,0.13
2023-03-02T23:31:33.764Z,0.12
2023-03-02T23:36:31.871Z,0.21
2023-03-02T23:41:28.264Z,0.16
2023-03-02T23:46:25.635Z,0.27
2023-03-02T23:51:26.397Z,0.34
2023-03-02T23:56:23.053Z,0.39
